Time;durP1;ratioP1;P1;durP2;ratioP2;P2;SDS_P1;SDS_P2;PMS_P1;PMS_P2;Temp;Humidity;BMP_temperature;BMP_pressure;BME280_temperature;BME280_humidity;BME280_pressure;Samples;Min_cycle;Max_cycle;Signal;HPM_P1;HPM_P2
2023/02/13 00:00:33;;;;;;;102.78;49.75;;;;;;;-0.57;88.02;102565.31;5039451;28;20083;-68
2023/02/13 00:02:59;;;;;;;105.95;52.03;;;;;;;-0.55;88.31;102576.72;5046970;28;20047;-68
2023/02/13 00:05:25;;;;;;;108.28;51.25;;;;;;;-0.60;88.88;102571.50;5046152;28;20025;-68
2023/02/13 00:07:50;;;;;;;107.88;49.50;;;;;;;-0.73;89.11;102554.00;5048620;28;20470;-68
2023/02/13 00:10:16;;;;;;;111.63;52.90;;;;;;;-0.76;89.16;102554.03;5059912;28;20029;-68
2023/02/13 00:12:41;;;;;;;101.47;49.63;;;;;;;-0.75;89.29;102554.88;5042894;28;20039;-68
2023/02/13 00:15:07;;;;;;;94.28;46.85;;;;;;;-0.78;89.60;102565.44;5056708;28;20798;-68
2023/02/13 00:17:33;;;;;;;94.30;47.67;;;;;;;-0.88;89.65;102558.47;5046744;28;20539;-69
2023/02/13 00:19:58;;;;;;;98.63;49.20;;;;;;;-0.86;90.30;102572.53;5050352;28;20074;-68
2023/02/13 00:22:24;;;;;;;98.65;47.35;;;;;;;-0.96;90.76;102560.28;5052116;28;20028;-69
2023/02/13 00:24:49;;;;;;;95.03;46.88;;;;;;;-0.94;90.98;102569.03;5041294;28;20039;-69
2023/02/13 00:27:15;;;;;;;92.03;46.08;;;;;;;-0.97;90.87;102575.19;5037786;28;20044;-69
2023/02/13 00:29:41;;;;;;;90.25;44.78;;;;;;;-1.01;91.17;102567.31;5048720;28;20074;-69
2023/02/13 00:32:06;;;;;;;97.20;49.03;;;;;;;-1.07;91.90;102567.34;5033762;28;20037;-69
2023/02/13 00:34:32;;;;;;;97.72;45.47;;;;;;;-1.11;92.06;102558.59;5051644;28;20353;-68
2023/02/13 00:36:57;;;;;;;89.82;46.08;;;;;;;-1.14;92.04;102563.00;5062180;28;20484;-68
2023/02/13 00:39:23;;;;;;;99.88;47.90;;;;;;;-1.15;92.31;102569.16;5068212;28;20103;-70
2023/02/13 00:41:48;;;;;;;96.53;47.03;;;;;;;-1.17;92.46;102577.06;5051801;28;20063;-69
2023/02/13 00:44:13;;;;;;;95.22;45.47;;;;;;;-1.23;92.12;102568.31;5050692;28;20075;-68
2023/02/13 00:46:39;;;;;;;91.55;47.55;;;;;;;-1.26;92.14;102570.97;5051741;28;20035;-68
2023/02/13 00:49:05;;;;;;;97.15;48.70;;;;;;;-1.31;92.44;102564.81;5039606;28;20123;-67
2023/02/13 00:51:30;;;;;;;101.95;49.60;;;;;;;-1.43;92.56;102549.06;5043870;28;20039;-67
2023/02/13 00:53:56;;;;;;;105.03;50.28;;;;;;;-1.38;92.54;102577.13;5066584;28;20048;-67
2023/02/13 00:56:21;;;;;;;100.85;48.75;;;;;;;-1.40;92.02;102572.75;5049879;28;20033;-67
2023/02/13 00:58:47;;;;;;;97.45;49.63;;;;;;;-1.45;92.23;102574.53;5045417;28;20092;-68
2023/02/13 01:01:12;;;;;;;102.53;47.10;;;;;;;-1.53;92.61;102576.28;5052361;28;20110;-68
2023/02/13 01:03:38;;;;;;;100.85;49.25;;;;;;;-1.53;92.78;102576.28;5040360;28;20025;-68
2023/02/13 01:06:04;;;;;;;96.70;49.90;;;;;;;-1.60;92.71;102572.81;5050864;28;20111;-68
2023/02/13 01:08:30;;;;;;;99.50;49.28;;;;;;;-1.59;92.50;102573.66;5052343;28;20028;-68
2023/02/13 01:10:56;;;;;;;100.82;47.83;;;;;;;-1.59;92.66;102586.81;5044039;28;20139;-69
2023/02/13 01:13:21;;;;;;;98.32;47.17;;;;;;;-1.71;92.63;102565.81;5057775;28;20025;-70
2023/02/13 01:15:47;;;;;;;98.53;47.15;;;;;;;-1.63;92.93;102583.34;5045137;28;20030;-69
2023/02/13 01:18:14;;;;;;;94.13;45.83;;;;;;;-1.67;92.61;102578.09;5058541;28;20032;-69
2023/02/13 01:20:42;;;;;;;102.43;48.60;;;;;;;-1.66;92.81;102579.81;5050329;28;20032;-68
2023/02/13 01:23:09;;;;;;;110.05;49.30;;;;;;;-1.76;92.95;102571.09;5044209;28;20033;-68
2023/02/13 01:25:34;;;;;;;105.03;48.20;;;;;;;-1.72;92.68;102571.94;5047008;28;20025;-68
2023/02/13 01:28:00;;;;;;;98.32;47.53;;;;;;;-1.81;92.52;102558.84;5037934;28;20033;-69
2023/02/13 01:30:25;;;;;;;101.30;49.13;;;;;;;-1.85;92.40;102551.81;5042321;28;20411;-68
2023/02/13 01:32:51;;;;;;;108.05;50.25;;;;;;;-1.80;93.20;102557.94;5048325;28;20098;-67
2023/02/13 01:35:16;;;;;;;104.70;49.80;;;;;;;-1.88;92.82;102547.44;5048293;28;20041;-67
2023/02/13 01:37:42;;;;;;;108.32;49.35;;;;;;;-1.84;92.60;102553.56;5051117;28;20021;-68
2023/02/13 01:40:11;;;;;;;106.38;50.42;;;;;;;-1.88;92.12;102552.69;5053306;28;20036;-68
2023/02/13 01:42:37;;;;;;;112.00;50.92;;;;;;;-1.97;92.13;102536.91;5060100;28;20032;-68
2023/02/13 01:45:23;;;;;;;110.95;50.78;;;;;;;-1.89;91.96;102544.81;5054484;28;20565;-67
2023/02/13 01:47:59;;;;;;;106.30;50.53;;;;;;;-1.94;92.05;102546.59;5052294;28;20048;-67
2023/02/13 01:50:34;;;;;;;105.53;50.72;;;;;;;-1.99;92.51;102545.69;5040986;28;20045;-67
2023/02/13 01:53:11;;;;;;;118.18;52.15;;;;;;;-2.04;92.57;102536.97;5055784;28;20048;-67
2023/02/13 01:55:43;;;;;;;113.63;52.63;;;;;;;-1.98;92.55;102550.06;5049658;28;20037;-68
2023/02/13 01:58:13;;;;;;;115.85;51.67;;;;;;;-2.08;92.92;102535.19;5066786;28;20383;-68
2023/02/13 02:00:39;;;;;;;126.97;54.45;;;;;;;-2.06;92.28;102543.97;5040531;28;20021;-68
2023/02/13 02:03:16;;;;;;;120.07;52.85;;;;;;;-2.04;92.27;102566.72;5048314;28;20029;-68
2023/02/13 02:05:42;;;;;;;115.88;52.80;;;;;;;-2.06;92.39;102558.00;5058055;28;20613;-68
2023/02/13 02:08:11;;;;;;;118.75;53.90;;;;;;;-2.13;92.37;102555.34;5048439;28;20028;-68
2023/02/13 02:10:38;;;;;;;117.38;51.08;;;;;;;-2.14;92.18;102553.59;5062142;28;20094;-68
2023/02/13 02:13:09;;;;;;;126.28;54.85;;;;;;;-2.15;92.36;102559.72;5041621;28;20431;-68
2023/02/13 02:15:35;;;;;;;124.35;56.28;;;;;;;-2.18;92.17;102557.09;5050152;28;20036;-68
2023/02/13 02:18:00;;;;;;;120.75;54.72;;;;;;;-2.17;92.62;102572.88;5042392;28;21705;-68
2023/02/13 02:20:58;;;;;;;119.80;55.33;;;;;;;-2.21;92.80;102572.88;5043344;28;20780;-68
2023/02/13 02:23:48;;;;;;;129.63;55.38;;;;;;;-2.23;92.80;102583.38;5036872;28;20037;-68
2023/02/13 02:26:47;;;;;;;137.27;61.08;;;;;;;-2.20;92.89;102582.53;5055700;28;20023;-68
2023/02/13 02:29:43;;;;;;;153.60;59.58;;;;;;;-2.22;93.39;102581.63;5043048;28;20064;-68
2023/02/13 02:32:35;;;;;;;140.68;60.25;;;;;;;-2.26;93.84;102572.00;5041790;28;20077;-67
2023/02/13 02:35:00;;;;;;;140.23;60.03;;;;;;;-2.27;93.65;102576.38;5042982;28;20041;-68
2023/02/13 02:37:44;;;;;;;127.05;57.80;;;;;;;-2.27;94.24;102568.50;5047998;28;20028;-68
2023/02/13 02:40:39;;;;;;;;;;;;;;;-2.28;94.49;102565.88;5052460;28;20064;-68
2023/02/13 02:43:39;;;;;;;121.75;54.17;;;;;;;-2.29;94.88;102578.13;5053100;28;20498;-68
2023/02/13 02:46:07;;;;;;;129.82;52.72;;;;;;;-2.33;94.59;102578.13;5042074;28;20033;-68
2023/02/13 02:52:11;;;;;;;116.70;52.70;;;;;;;-2.45;94.54;102569.34;5047942;28;20047;-68
2023/02/13 03:06:09;;;;;;;123.55;53.22;;;;;;;-2.47;95.20;102571.13;5047989;28;20043;-68
2023/02/13 03:14:02;;;;;;;108.88;48.22;;;;;;;-2.63;93.83;102564.09;5036816;28;20039;-68
2023/02/13 03:22:35;;;;;;;103.65;45.97;;;;;;;-2.72;93.11;102564.06;5042460;28;20021;-67
2023/02/13 03:25:36;;;;;;;107.32;46.67;;;;;;;-2.72;93.52;102577.19;5043107;28;20083;-67
2023/02/13 03:31:19;;;;;;;97.50;44.97;;;;;;;-2.75;94.04;102573.69;5037679;28;20114;-67
2023/02/13 03:34:07;;;;;;;98.28;47.30;;;;;;;-2.82;93.77;102564.03;5052177;28;20036;-68
2023/02/13 03:40:06;;;;;;;96.32;46.25;;;;;;;-2.81;93.26;102584.16;5036291;28;20060;-67
2023/02/13 03:42:31;;;;;;;106.20;46.70;;;;;;;-2.87;93.26;102573.66;5036362;28;20676;-68
2023/02/13 03:47:55;;;;;;;104.07;47.88;;;;;;;-2.91;93.26;102580.66;5041092;28;20562;-67
2023/02/13 03:50:22;;;;;;;99.25;46.70;;;;;;;-3.01;92.89;102557.88;5047608;28;20033;-68
2023/02/13 03:53:04;;;;;;;108.32;48.10;;;;;;;-3.05;93.10;102550.88;5045210;28;20531;-69
2023/02/13 04:01:27;;;;;;;99.70;45.65;;;;;;;-3.06;93.04;102564.84;5048914;28;20654;-68
2023/02/13 04:04:16;;;;;;;100.00;44.85;;;;;;;-3.13;92.37;102557.81;5052918;28;20082;-68
2023/02/13 04:07:02;;;;;;;96.80;44.22;;;;;;;-3.10;92.55;102576.19;5044493;28;20031;-68
2023/02/13 04:09:29;;;;;;;99.40;45.58;;;;;;;-3.12;92.30;102570.09;5051003;28;20025;-67
2023/02/13 04:12:05;;;;;;;95.25;45.03;;;;;;;-3.16;91.83;102568.31;5046251;28;20025;-67
2023/02/13 04:14:40;;;;;;;98.10;43.55;;;;;;;-3.22;92.09;102563.03;5052407;28;20102;-68
2023/02/13 04:17:19;;;;;;;102.68;45.20;;;;;;;-3.23;92.31;102557.78;5042523;28;20529;-68
2023/02/13 04:19:44;;;;;;;98.57;45.03;;;;;;;-3.21;93.10;102562.19;5046883;28;20029;-68
2023/02/13 04:22:11;;;;;;;91.50;43.03;;;;;;;-3.20;93.47;102568.28;5044727;28;20055;-68
2023/02/13 04:24:36;;;;;;;100.03;44.65;;;;;;;-3.26;93.03;102558.66;5050123;28;20034;-68
2023/02/13 04:27:02;;;;;;;92.38;42.50;;;;;;;-3.31;93.53;102549.91;5039042;28;20029;-68
2023/02/13 04:29:28;;;;;;;100.22;44.92;;;;;;;-3.27;93.22;102567.41;5037735;28;20150;-68
2023/02/13 04:31:53;;;;;;;97.80;43.78;;;;;;;-3.33;92.71;102556.88;5043556;28;20530;-67
2023/02/13 04:34:18;;;;;;;98.30;45.33;;;;;;;-3.32;92.39;102563.88;5042673;28;20039;-68
2023/02/13 04:36:44;;;;;;;92.03;42.58;;;;;;;-3.32;92.71;102569.09;5035581;28;20033;-68
2023/02/13 04:39:10;;;;;;;98.43;43.92;;;;;;;-3.34;92.94;102567.34;5051699;28;20309;-67
2023/02/13 04:41:36;;;;;;;102.70;44.15;;;;;;;-3.42;93.19;102551.56;5050530;28;20021;-68
2023/02/13 04:44:02;;;;;;;89.95;42.75;;;;;;;-3.35;93.76;102569.09;5052986;28;20087;-68
2023/02/13 04:46:27;;;;;;;85.25;42.55;;;;;;;-3.34;93.40;102568.25;5052494;28;20586;-67
2023/02/13 04:48:53;;;;;;;99.72;42.50;;;;;;;-3.35;93.92;102576.97;5038559;28;20120;-67
2023/02/13 04:51:18;;;;;;;92.97;43.33;;;;;;;-3.37;93.66;102568.22;5043980;28;20033;-68
2023/02/13 04:53:43;;;;;;;92.80;41.55;;;;;;;-3.38;93.95;102558.63;5037057;28;20049;-68
2023/02/13 04:56:09;;;;;;;81.28;40.75;;;;;;;-3.42;93.79;102551.56;5041890;28;20083;-68
2023/02/13 04:58:34;;;;;;;86.20;40.70;;;;;;;-3.37;93.93;102560.34;5048902;28;20063;-68
2023/02/13 05:01:00;;;;;;;89.10;40.67;;;;;;;-3.41;94.09;102552.47;5047617;28;20037;-68
2023/02/13 05:03:25;;;;;;;94.20;41.80;;;;;;;-3.44;93.74;102542.84;5045047;28;20419;-68
2023/02/13 05:05:51;;;;;;;92.53;40.42;;;;;;;-3.43;93.70;102549.84;5055855;28;20806;-68
2023/02/13 05:08:16;;;;;;;87.07;39.30;;;;;;;-3.48;94.08;102535.81;5044771;28;20028;-68
2023/02/13 05:10:41;;;;;;;89.78;39.70;;;;;;;-3.46;94.42;102539.31;5046963;28;20035;-68
2023/02/13 05:13:07;;;;;;;91.32;41.38;;;;;;;-3.44;94.91;102534.97;5046577;28;20036;-67
2023/02/13 05:15:32;;;;;;;86.50;39.17;;;;;;;-3.42;95.22;102534.97;5046159;28;20040;-68
2023/02/13 05:17:58;;;;;;;84.85;40.63;;;;;;;-3.46;93.91;102528.84;5046169;28;20399;-68
2023/02/13 05:20:23;;;;;;;86.57;38.88;;;;;;;-3.58;94.27;102510.41;5050243;28;20518;-68
2023/02/13 05:25:37;;;;;;;94.18;44.28;;;;;;;-3.46;93.57;102538.44;5047743;28;20097;-68
2023/02/13 05:28:03;;;;;;;95.13;43.70;;;;;;;-3.50;93.79;102529.69;5057752;28;20171;-68
2023/02/13 05:30:29;;;;;;;91.47;42.13;;;;;;;-3.46;93.79;102527.94;5049157;28;20033;-68
2023/02/13 05:32:54;;;;;;;97.65;44.05;;;;;;;-3.46;94.12;102528.84;5037096;28;20472;-68
2023/02/13 05:35:21;;;;;;;88.43;44.15;;;;;;;-3.45;94.01;102534.97;5043888;28;20036;-68
2023/02/13 05:37:47;;;;;;;95.97;44.45;;;;;;;-3.46;94.04;102547.19;5052048;28;20067;-68
2023/02/13 05:40:13;;;;;;;86.43;42.95;;;;;;;-3.54;93.92;102530.56;5042682;28;20116;-68
2023/02/13 05:42:42;;;;;;;92.20;44.80;;;;;;;-3.49;93.43;102543.66;5048925;28;20037;-68
2023/02/13 05:45:08;;;;;;;88.65;44.20;;;;;;;-3.44;93.72;102550.72;5039895;28;20059;-68
2023/02/13 05:47:34;;;;;;;94.07;43.50;;;;;;;-3.42;93.83;102551.56;5042718;28;20480;-68
2023/02/13 05:50:00;;;;;;;86.65;43.03;;;;;;;-3.45;94.06;102543.69;5046770;28;20064;-68
2023/02/13 05:52:25;;;;;;;94.07;44.72;;;;;;;-3.40;94.44;102559.47;5052857;28;20036;-68
2023/02/13 05:54:51;;;;;;;91.63;42.17;;;;;;;-3.39;94.99;102562.09;5045865;28;20039;-68
2023/02/13 05:57:17;;;;;;;87.70;43.83;;;;;;;-3.39;95.29;102555.97;5039645;28;20037;-68
2023/02/13 05:59:42;;;;;;;90.40;42.97;;;;;;;-3.38;95.73;102558.63;5049530;28;20029;-68
2023/02/13 06:02:07;;;;;;;88.45;41.10;;;;;;;-3.35;95.53;102561.22;5038675;28;20031;-68
2023/02/13 06:04:33;;;;;;;82.88;40.35;;;;;;;-3.51;96.05;102527.91;5038242;28;20036;-68
2023/02/13 06:06:58;;;;;;;90.25;42.00;;;;;;;-3.33;95.60;102567.38;5039097;28;20384;-68
2023/02/13 06:09:24;;;;;;;78.90;37.47;;;;;;;-3.39;95.81;102545.50;5046497;28;20494;-68
2023/02/13 06:11:49;;;;;;;84.50;38.75;;;;;;;-3.32;96.04;102552.50;5047292;28;20268;-68
2023/02/13 06:14:15;;;;;;;87.05;38.60;;;;;;;-3.26;96.01;102558.66;5051707;28;20021;-68
2023/02/13 06:16:41;;;;;;;78.47;37.13;;;;;;;-3.19;96.09;102565.66;5042827;28;20040;-67
2023/02/13 06:19:06;;;;;;;78.55;36.63;;;;;;;-3.14;96.86;102556.06;5079690;28;20819;-68
2023/02/13 06:21:36;;;;;;;68.65;33.35;;;;;;;-3.02;97.54;102558.75;5042798;28;20037;-68
2023/02/13 06:24:03;;;;;;;66.72;32.72;;;;;;;-2.88;98.12;102553.53;5048377;28;20102;-68
2023/02/13 06:26:28;;;;;;;71.60;32.65;;;;;;;-2.77;98.77;102551.81;5047182;28;20048;-68
2023/02/13 06:28:54;;;;;;;65.88;30.77;;;;;;;-2.66;99.28;102550.97;5045148;28;20021;-68
2023/02/13 06:31:19;;;;;;;60.58;27.63;;;;;;;-2.54;100.00;102529.94;5046312;28;20028;-68
2023/02/13 06:33:45;;;;;;;59.55;28.17;;;;;;;-2.37;100.00;102533.47;5046545;28;20043;-69
2023/02/13 06:36:10;;;;;;;54.72;27.50;;;;;;;-2.30;100.00;102518.56;5039146;28;20025;-68
2023/02/13 06:38:35;;;;;;;51.80;26.83;;;;;;;-2.10;100.00;102527.31;5041011;28;20037;-68
2023/02/13 06:41:01;;;;;;;57.58;26.00;;;;;;;-1.93;100.00;102529.91;5042813;28;20116;-68
2023/02/13 06:43:26;;;;;;;53.00;27.10;;;;;;;-1.81;100.00;102524.66;5053048;28;20028;-67
2023/02/13 06:45:52;;;;;;;52.65;26.45;;;;;;;-1.72;100.00;102522.84;5038066;28;20507;-68
2023/02/13 06:48:18;;;;;;;54.47;27.05;;;;;;;-1.47;100.00;102536.81;5040443;28;20047;-68
2023/02/13 06:50:44;;;;;;;60.17;29.27;;;;;;;-1.42;100.00;102538.53;5029734;28;20041;-67
2023/02/13 06:53:09;;;;;;;59.65;29.80;;;;;;;-1.32;100.00;102539.38;5027673;28;20084;-68
2023/02/13 06:55:38;;;;;;;61.33;30.05;;;;;;;-1.25;100.00;102549.91;5037896;28;20044;-67
2023/02/13 06:58:03;;;;;;;60.05;28.73;;;;;;;-1.15;100.00;102558.63;5049674;28;20032;-68
2023/02/13 07:00:29;;;;;;;66.80;29.92;;;;;;;-1.07;100.00;102556.81;5043650;28;20045;-67
2023/02/13 07:03:01;;;;;;;62.40;29.13;;;;;;;-1.02;100.00;102544.50;5050424;28;20044;-67
2023/02/13 07:05:26;;;;;;;62.25;30.25;;;;;;;-1.00;100.00;102548.03;5039345;28;20120;-69
2023/02/13 07:07:52;;;;;;;58.35;30.35;;;;;;;-0.87;100.00;102552.34;5047819;28;20575;-67
2023/02/13 07:10:17;;;;;;;53.50;28.08;;;;;;;-0.83;100.00;102547.06;5044943;28;20078;-68
2023/02/13 07:12:43;;;;;;;66.57;30.80;;;;;;;-0.73;100.00;102558.38;5047133;28;20031;-68
2023/02/13 07:15:09;;;;;;;58.78;29.13;;;;;;;-0.64;100.00;102567.09;5043560;28;20948;-67
2023/02/13 07:17:34;;;;;;;58.13;30.02;;;;;;;-0.53;100.00;102574.94;5050672;28;20112;-67
2023/02/13 07:20:00;;;;;;;58.20;29.67;;;;;;;-0.63;100.00;102546.91;5049945;28;20041;-68
2023/02/13 07:22:26;;;;;;;59.22;29.55;;;;;;;-0.36;100.00;102575.69;5046841;28;20037;-68
2023/02/13 07:24:51;;;;;;;59.83;31.00;;;;;;;-0.29;100.00;102567.75;5045214;28;20083;-68
2023/02/13 07:27:17;;;;;;;53.88;26.60;;;;;;;-0.20;99.50;102577.34;5050605;28;20119;-68
2023/02/13 07:29:42;;;;;;;52.60;28.42;;;;;;;-0.09;99.40;102571.06;5044639;28;20155;-68
2023/02/13 07:32:08;;;;;;;56.00;29.83;;;;;;;0.02;98.94;102573.63;5031544;28;20022;-68
2023/02/13 07:34:33;;;;;;;59.58;32.25;;;;;;;0.12;98.62;102577.94;5047039;28;20071;-68
2023/02/13 07:36:58;;;;;;;62.40;30.73;;;;;;;0.11;98.47;102576.19;5050003;28;20077;-67
2023/02/13 07:39:24;;;;;;;61.80;29.40;;;;;;;0.28;98.15;102579.53;5050403;28;20024;-67
2023/02/13 07:41:51;;;;;;;57.45;30.85;;;;;;;0.38;98.08;102577.69;5051842;28;20049;-67
2023/02/13 07:44:16;;;;;;;59.88;31.40;;;;;;;0.45;97.58;102574.09;5050104;28;20547;-67
2023/02/13 07:46:42;;;;;;;58.47;30.20;;;;;;;0.63;97.32;102587.09;5066351;28;20074;-68
2023/02/13 07:49:07;;;;;;;60.78;31.00;;;;;;;0.71;96.87;102585.25;5047314;28;20147;-68
2023/02/13 07:51:33;;;;;;;60.17;31.15;;;;;;;0.75;96.75;102576.41;5041043;28;20025;-67
2023/02/13 07:53:58;;;;;;;57.08;30.65;;;;;;;0.87;96.71;102581.53;5045655;28;20112;-68
2023/02/13 07:56:24;;;;;;;56.17;31.23;;;;;;;0.98;96.41;102583.16;5049398;28;20464;-68
2023/02/13 07:58:49;;;;;;;61.90;32.85;;;;;;;1.08;95.97;102582.13;5047231;28;20044;-68
2023/02/13 08:01:16;;;;;;;63.53;33.65;;;;;;;1.19;95.58;102569.66;5049149;28;20025;-68
2023/02/13 08:03:42;;;;;;;61.22;32.97;;;;;;;1.33;95.26;102577.41;5047138;28;20029;-68
2023/02/13 08:06:08;;;;;;;60.97;30.92;;;;;;;1.42;95.33;102575.47;5039469;28;20614;-68
2023/02/13 08:08:34;;;;;;;59.90;31.60;;;;;;;1.55;94.70;102576.19;5060620;28;20024;-68
2023/02/13 08:13:50;;;;;;;67.45;33.33;;;;;;;1.84;93.93;102590.69;5043083;28;20051;-68
2023/02/13 08:16:16;;;;;;;58.85;31.42;;;;;;;1.89;93.69;102582.69;5057285;28;20472;-68
2023/02/13 08:18:41;;;;;;;59.63;31.77;;;;;;;2.03;93.38;102592.16;5046851;28;20108;-69
2023/02/13 08:21:07;;;;;;;71.35;34.22;;;;;;;2.04;92.43;102579.81;5043794;28;20586;-68
2023/02/13 08:23:32;;;;;;;71.45;34.20;;;;;;;2.18;92.17;102601.59;5045207;28;20472;-68
2023/02/13 08:26:00;;;;;;;61.72;31.75;;;;;;;2.18;92.02;102591.00;5034535;28;20028;-69
2023/02/13 08:28:26;;;;;;;65.32;32.67;;;;;;;2.29;91.24;102604.97;5048861;28;20021;-68
2023/02/13 08:30:51;;;;;;;53.90;30.35;;;;;;;2.45;91.37;102605.56;5049105;28;20047;-68
2023/02/13 08:33:16;;;;;;;61.72;31.35;;;;;;;2.48;91.29;102608.16;5058121;28;20028;-68
2023/02/13 08:35:42;;;;;;;60.13;31.90;;;;;;;2.56;89.99;102608.88;5049799;28;20036;-68
2023/02/13 08:38:08;;;;;;;58.15;31.42;;;;;;;2.63;89.90;102607.84;5056274;28;20024;-68
2023/02/13 08:40:34;;;;;;;65.40;32.60;;;;;;;2.66;89.64;102595.44;5041784;28;20180;-68
2023/02/13 08:43:01;;;;;;;58.42;32.03;;;;;;;2.76;89.11;102604.06;5047880;28;20123;-69
2023/02/13 08:45:26;;;;;;;58.97;32.55;;;;;;;2.76;88.50;102591.69;5045850;28;20115;-68
2023/02/13 08:47:55;;;;;;;69.95;36.22;;;;;;;2.85;88.31;102588.88;5047158;28;20112;-68
2023/02/13 08:50:21;;;;;;;67.32;35.03;;;;;;;2.97;88.29;102599.19;5055277;28;20055;-68
2023/02/13 08:52:46;;;;;;;62.85;32.17;;;;;;;3.02;87.45;102593.81;5054694;28;20068;-68
2023/02/13 08:55:11;;;;;;;68.45;34.83;;;;;;;3.05;87.35;102585.78;5057941;28;20032;-68
2023/02/13 08:57:37;;;;;;;98.75;46.33;;;;;;;3.14;86.96;102583.84;5060224;28;20021;-68
2023/02/13 09:00:03;;;;;;;80.15;40.10;;;;;;;3.13;86.40;102565.31;5036842;28;20024;-68
2023/02/13 09:02:28;;;;;;;71.60;36.92;;;;;;;3.28;86.75;102580.88;5060641;28;20074;-68
2023/02/13 09:04:54;;;;;;;73.55;35.88;;;;;;;3.28;86.12;102579.09;5054721;28;20558;-68
2023/02/13 09:07:19;;;;;;;72.55;34.53;;;;;;;3.38;85.88;102585.94;5052745;28;20021;-69
2023/02/13 09:09:45;;;;;;;72.10;35.22;;;;;;;3.50;85.40;102584.78;5051831;28;20179;-68
2023/02/13 09:12:10;;;;;;;65.57;35.15;;;;;;;3.52;85.56;102578.53;5051123;28;20040;-68
2023/02/13 09:14:38;;;;;;;65.78;33.47;;;;;;;3.58;84.94;102569.59;5047336;28;20048;-68
2023/02/13 09:17:03;;;;;;;64.25;31.48;;;;;;;3.69;85.02;102575.50;5047069;28;20036;-68
2023/02/13 09:19:28;;;;;;;55.85;30.48;;;;;;;3.76;84.45;102567.38;5042652;28;20025;-68
2023/02/13 09:21:54;;;;;;;57.38;32.25;;;;;;;3.84;84.38;102568.03;5045950;28;20494;-68
2023/02/13 09:24:19;;;;;;;54.83;30.77;;;;;;;3.88;84.13;102558.22;5047676;28;20482;-68
2023/02/13 09:26:45;;;;;;;53.00;30.65;;;;;;;4.01;83.83;102564.97;5043637;28;20024;-68
2023/02/13 09:29:10;;;;;;;56.40;30.73;;;;;;;4.09;83.54;102569.19;5046082;28;20348;-69
2023/02/13 09:31:36;;;;;;;51.60;29.85;;;;;;;4.12;82.80;102560.25;5048185;28;20032;-68
2023/02/13 09:34:01;;;;;;;61.45;31.30;;;;;;;4.19;82.30;102559.19;5061212;28;20064;-68
2023/02/13 09:36:26;;;;;;;54.90;31.27;;;;;;;4.33;82.36;102584.47;5047437;28;20047;-68
2023/02/13 09:38:56;;;;;;;50.72;30.45;;;;;;;4.37;82.31;102572.88;5048293;28;20024;-68
2023/02/13 09:41:26;;;;;;;58.08;30.67;;;;;;;4.40;82.15;102558.63;5048843;28;20044;-68
2023/02/13 09:43:54;;;;;;;49.53;29.35;;;;;;;4.57;81.66;102561.69;5046247;28;20036;-68
2023/02/13 09:46:30;;;;;;;55.88;32.47;;;;;;;4.69;81.40;102577.31;5053096;28;20338;-68
2023/02/13 09:48:59;;;;;;;57.05;32.65;;;;;;;4.75;80.61;102562.03;5050417;28;20029;-68
2023/02/13 09:51:26;;;;;;;54.17;31.95;;;;;;;4.98;79.28;102565.84;5048995;28;20024;-68
2023/02/13 09:54:05;;;;;;;56.80;32.05;;;;;;;5.11;78.46;102572.53;5061206;28;20122;-68
2023/02/13 09:56:53;;;;;;;61.35;33.50;;;;;;;5.26;77.98;102572.09;5044100;28;20040;-68
2023/02/13 09:59:46;;;;;;;53.33;32.30;;;;;;;5.52;76.43;102551.75;5049237;28;20171;-68
2023/02/13 10:02:33;;;;;;;55.80;33.20;;;;;;;5.80;75.32;102549.94;5052917;28;20474;-68
2023/02/13 10:05:13;;;;;;;59.83;33.35;;;;;;;6.18;73.32;102554.00;5044486;28;20394;-68
2023/02/13 10:07:48;;;;;;;63.38;33.85;;;;;;;6.66;71.44;102545.19;5053106;28;20422;-68
2023/02/13 10:10:43;;;;;;;54.08;32.13;;;;;;;7.59;67.40;102540.66;5046899;28;20076;-68
2023/02/13 10:13:41;;;;;;;57.67;32.92;;;;;;;8.69;62.39;102535.94;5048144;28;20108;-68
2023/02/13 10:16:18;;;;;;;52.20;31.58;;;;;;;9.56;58.26;102529.13;5040719;28;20444;-68
2023/02/13 10:19:02;;;;;;;58.97;34.97;;;;;;;10.07;56.79;102529.25;5057029;28;20090;-68
2023/02/13 10:21:34;;;;;;;57.78;35.22;;;;;;;10.23;55.70;102506.09;5041966;28;20033;-68
2023/02/13 10:24:10;;;;;;;58.47;34.83;;;;;;;10.28;55.74;102525.47;5049914;28;20064;-68
2023/02/13 10:26:41;;;;;;;53.50;33.28;;;;;;;10.03;55.95;102516.06;5050693;28;20752;-68
2023/02/13 10:32:13;;;;;;;56.05;34.38;;;;;;;9.45;58.07;102519.88;5047463;28;20102;-68
2023/02/13 10:34:43;;;;;;;55.25;34.60;;;;;;;9.18;58.93;102516.69;5044462;28;20123;-68
2023/02/13 10:37:21;;;;;;;50.92;32.40;;;;;;;8.97;59.93;102515.03;5057458;28;20111;-68
2023/02/13 10:39:49;;;;;;;51.30;32.80;;;;;;;8.85;60.16;102516.47;5047975;28;20079;-67
2023/02/13 10:42:26;;;;;;;49.88;33.38;;;;;;;8.78;60.53;102514.97;5048701;28;20091;-68
2023/02/13 10:45:26;;;;;;;52.05;33.05;;;;;;;8.77;59.79;102507.91;5045808;28;20476;-68
2023/02/13 10:47:57;;;;;;;53.88;32.03;;;;;;;8.67;60.82;102508.38;5037607;28;20053;-68
2023/02/13 10:50:40;;;;;;;51.80;30.42;;;;;;;8.56;61.06;102502.66;5049755;28;20033;-69
2023/02/13 10:53:23;;;;;;;49.70;31.15;;;;;;;8.47;61.68;102495.03;5045007;28;20060;-69
2023/02/13 10:55:58;;;;;;;44.80;28.85;;;;;;;8.43;62.08;102496.13;5034764;28;20064;-69
2023/02/13 10:58:35;;;;;;;54.25;31.25;;;;;;;8.37;62.18;102486.56;5050701;28;20107;-69
2023/02/13 11:01:17;;;;;;;62.00;35.42;;;;;;;8.33;62.58;102484.97;5046115;28;20443;-69
2023/02/13 11:03:46;;;;;;;46.50;26.98;;;;;;;8.37;62.40;102477.66;5049199;28;20469;-68
2023/02/13 11:06:16;;;;;;;51.03;35.85;;;;;;;8.35;62.59;102495.59;5046447;28;20431;-68
2023/02/13 11:08:45;;;;;;;47.30;32.67;;;;;;;8.31;62.24;102485.94;5039962;28;20025;-68
2023/02/13 11:11:30;;;;;;;41.55;26.73;;;;;;;8.28;62.22;102481.63;5054730;28;20064;-69
2023/02/13 11:14:13;;;;;;;35.28;22.55;;;;;;;8.24;61.99;102457.75;5049635;28;20102;-69
2023/02/13 11:16:43;;;;;;;39.40;21.40;;;;;;;8.32;62.31;102466.31;5056934;28;20434;-69
2023/02/13 11:19:22;;;;;;;37.28;21.58;;;;;;;8.26;63.09;102478.13;5057822;28;20136;-69
2023/02/13 11:21:54;;;;;;;33.15;21.48;;;;;;;8.26;63.34;102479.94;5054519;28;20619;-69
2023/02/13 11:24:24;;;;;;;39.40;21.00;;;;;;;8.18;63.13;102458.00;5061658;28;20440;-68
2023/02/13 11:26:56;;;;;;;32.80;20.33;;;;;;;8.25;62.70;102476.41;5063941;28;20465;-68
2023/02/13 11:29:26;;;;;;;30.67;18.55;;;;;;;8.23;62.62;102459.59;5050310;28;20040;-68
2023/02/13 11:32:06;;;;;;;35.47;20.05;;;;;;;8.25;62.96;102472.84;5050797;28;20025;-68
2023/02/13 11:34:33;;;;;;;33.45;20.45;;;;;;;8.17;63.05;102456.25;5036283;28;20083;-68
2023/02/13 11:37:17;;;;;;;32.15;19.13;;;;;;;8.40;62.04;102467.72;5048931;28;20036;-68
2023/02/13 11:39:45;;;;;;;32.58;18.33;;;;;;;8.33;62.51;102457.34;5044202;28;20030;-68
2023/02/13 11:42:32;;;;;;;31.60;18.77;;;;;;;8.30;62.99;102454.81;5060501;28;20531;-68
2023/02/13 11:45:22;;;;;;;34.42;19.05;;;;;;;8.31;62.58;102456.53;5054576;28;20021;-69
2023/02/13 11:47:48;;;;;;;32.10;19.83;;;;;;;8.39;61.90;102460.59;5053616;28;20702;-68
2023/02/13 11:50:34;;;;;;;34.13;19.25;;;;;;;8.41;61.55;102455.19;5048915;28;20029;-68
2023/02/13 11:53:06;;;;;;;49.42;27.67;;;;;;;8.34;62.43;102445.72;5048915;28;20124;-69
2023/02/13 11:55:37;;;;;;;43.25;28.05;;;;;;;8.40;62.47;102453.47;5043199;28;20106;-68
2023/02/13 11:58:23;;;;;;;41.88;23.13;;;;;;;8.31;62.95;102440.50;5047926;28;20128;-67
2023/02/13 12:00:48;;;;;;;33.47;20.23;;;;;;;8.41;62.63;102444.50;5038728;28;20017;-68
2023/02/13 12:03:20;;;;;;;32.45;19.92;;;;;;;8.43;62.71;102442.63;5041082;28;20048;-68
2023/02/13 12:06:07;;;;;;;30.92;19.38;;;;;;;8.44;62.10;102445.25;5044914;28;20024;-68
2023/02/13 12:08:37;;;;;;;31.58;18.05;;;;;;;8.45;62.02;102443.44;5047768;28;20028;-68
2023/02/13 12:11:20;;;;;;;34.90;18.85;;;;;;;8.49;61.64;102432.53;5081061;28;20021;-69